sensor_id;sensor_type;location;lat;lon;timestamp;temperature;humidity
26053;DHT22;13826;51.186;4.450;2023-05-07T00:00:11;16.90;99.90
26053;DHT22;13826;51.186;4.450;2023-05-07T00:02:40;17.00;99.90
26053;DHT22;13826;51.186;4.450;2023-05-07T00:05:06;16.90;99.90
26053;DHT22;13826;51.186;4.450;2023-05-07T00:07:32;17.00;99.90
26053;DHT22;13826;51.186;4.450;2023-05-07T00:09:58;17.00;99.90
26053;DHT22;13826;51.186;4.450;2023-05-07T00:12:23;17.00;99.90
26053;DHT22;13826;51.186;4.450;2023-05-07T00:14:49;17.00;99.90
26053;DHT22;13826;51.186;4.450;2023-05-07T00:17:14;16.70;99.90
26053;DHT22;13826;51.186;4.450;2023-05-07T00:19:40;16.60;99.90
26053;DHT22;13826;51.186;4.450;2023-05-07T00:22:06;16.50;99.90
26053;DHT22;13826;51.186;4.450;2023-05-07T00:24:32;16.60;99.90
26053;DHT22;13826;51.186;4.450;2023-05-07T00:26:58;16.50;99.90
26053;DHT22;13826;51.186;4.450;2023-05-07T00:29:23;16.60;99.90
26053;DHT22;13826;51.186;4.450;2023-05-07T00:31:49;16.50;99.90
26053;DHT22;13826;51.186;4.450;2023-05-07T00:34:15;16.50;99.90
26053;DHT22;13826;51.186;4.450;2023-05-07T00:36:40;16.50;99.90
26053;DHT22;13826;51.186;4.450;2023-05-07T00:39:06;16.50;99.90
26053;DHT22;13826;51.186;4.450;2023-05-07T00:41:32;16.60;99.90
26053;DHT22;13826;51.186;4.450;2023-05-07T00:43:57;16.80;99.90
26053;DHT22;13826;51.186;4.450;2023-05-07T00:46:23;16.90;99.90
26053;DHT22;13826;51.186;4.450;2023-05-07T00:48:49;16.90;99.90
26053;DHT22;13826;51.186;4.450;2023-05-07T00:51:15;17.00;99.90
26053;DHT22;13826;51.186;4.450;2023-05-07T00:53:41;16.80;99.90
26053;DHT22;13826;51.186;4.450;2023-05-07T00:56:07;16.70;99.90
26053;DHT22;13826;51.186;4.450;2023-05-07T00:58:33;16.60;99.90
26053;DHT22;13826;51.186;4.450;2023-05-07T01:00:59;16.80;99.90
26053;DHT22;13826;51.186;4.450;2023-05-07T01:03:24;16.80;99.90
26053;DHT22;13826;51.186;4.450;2023-05-07T01:05:51;16.80;99.90
26053;DHT22;13826;51.186;4.450;2023-05-07T01:08:17;16.60;99.90
26053;DHT22;13826;51.186;4.450;2023-05-07T01:10:43;16.60;99.90
26053;DHT22;13826;51.186;4.450;2023-05-07T01:13:09;16.70;99.90
26053;DHT22;13826;51.186;4.450;2023-05-07T01:15:35;16.60;99.90
26053;DHT22;13826;51.186;4.450;2023-05-07T01:18:01;16.70;99.90
26053;DHT22;13826;51.186;4.450;2023-05-07T01:20:27;16.70;99.90
26053;DHT22;13826;51.186;4.450;2023-05-07T01:22:53;16.60;99.90
26053;DHT22;13826;51.186;4.450;2023-05-07T01:25:18;16.40;99.90
26053;DHT22;13826;51.186;4.450;2023-05-07T01:27:44;16.30;99.90
26053;DHT22;13826;51.186;4.450;2023-05-07T01:30:10;16.50;99.90
26053;DHT22;13826;51.186;4.450;2023-05-07T01:32:37;16.50;99.90
26053;DHT22;13826;51.186;4.450;2023-05-07T01:35:05;16.40;99.90
26053;DHT22;13826;51.186;4.450;2023-05-07T01:37:32;16.30;99.90
26053;DHT22;13826;51.186;4.450;2023-05-07T01:39:58;16.40;99.90
26053;DHT22;13826;51.186;4.450;2023-05-07T01:42:23;16.20;99.90
26053;DHT22;13826;51.186;4.450;2023-05-07T01:44:49;16.00;99.90
26053;DHT22;13826;51.186;4.450;2023-05-07T01:47:15;15.90;99.90
26053;DHT22;13826;51.186;4.450;2023-05-07T01:49:41;15.80;99.90
26053;DHT22;13826;51.186;4.450;2023-05-07T01:52:07;15.80;99.90
26053;DHT22;13826;51.186;4.450;2023-05-07T01:54:33;15.90;99.90
26053;DHT22;13826;51.186;4.450;2023-05-07T01:56:58;16.00;99.90
26053;DHT22;13826;51.186;4.450;2023-05-07T01:59:24;16.10;99.90
26053;DHT22;13826;51.186;4.450;2023-05-07T02:01:49;16.10;99.90
26053;DHT22;13826;51.186;4.450;2023-05-07T02:04:15;16.10;99.90
26053;DHT22;13826;51.186;4.450;2023-05-07T02:06:40;16.00;99.90
26053;DHT22;13826;51.186;4.450;2023-05-07T02:09:06;15.80;99.90
26053;DHT22;13826;51.186;4.450;2023-05-07T02:11:31;15.60;99.90
26053;DHT22;13826;51.186;4.450;2023-05-07T02:13:57;15.70;99.90
26053;DHT22;13826;51.186;4.450;2023-05-07T02:16:22;15.60;99.90
26053;DHT22;13826;51.186;4.450;2023-05-07T02:18:49;15.70;99.90
26053;DHT22;13826;51.186;4.450;2023-05-07T02:21:15;15.90;99.90
26053;DHT22;13826;51.186;4.450;2023-05-07T02:23:40;16.00;99.90
26053;DHT22;13826;51.186;4.450;2023-05-07T02:26:05;16.10;99.90
26053;DHT22;13826;51.186;4.450;2023-05-07T02:28:31;16.20;99.90
26053;DHT22;13826;51.186;4.450;2023-05-07T02:30:57;16.00;99.90
26053;DHT22;13826;51.186;4.450;2023-05-07T02:33:23;16.00;99.90
26053;DHT22;13826;51.186;4.450;2023-05-07T02:35:49;16.10;99.90
26053;DHT22;13826;51.186;4.450;2023-05-07T02:38:14;16.20;99.90
26053;DHT22;13826;51.186;4.450;2023-05-07T02:40:40;16.40;99.90
26053;DHT22;13826;51.186;4.450;2023-05-07T02:43:06;16.60;99.90
26053;DHT22;13826;51.186;4.450;2023-05-07T02:45:32;16.70;99.90
26053;DHT22;13826;51.186;4.450;2023-05-07T02:47:58;16.70;99.90
26053;DHT22;13826;51.186;4.450;2023-05-07T02:50:23;16.70;99.90
26053;DHT22;13826;51.186;4.450;2023-05-07T02:52:49;16.60;99.90
26053;DHT22;13826;51.186;4.450;2023-05-07T02:55:15;16.50;99.90
26053;DHT22;13826;51.186;4.450;2023-05-07T02:57:40;16.70;99.90
26053;DHT22;13826;51.186;4.450;2023-05-07T03:00:10;16.80;99.90
26053;DHT22;13826;51.186;4.450;2023-05-07T03:02:36;16.70;99.90
26053;DHT22;13826;51.186;4.450;2023-05-07T03:05:01;16.40;99.90
26053;DHT22;13826;51.186;4.450;2023-05-07T03:07:27;16.30;99.90
26053;DHT22;13826;51.186;4.450;2023-05-07T03:09:52;16.20;99.90
26053;DHT22;13826;51.186;4.450;2023-05-07T03:12:18;16.20;99.90
26053;DHT22;13826;51.186;4.450;2023-05-07T03:14:44;16.30;99.90
26053;DHT22;13826;51.186;4.450;2023-05-07T03:17:09;16.40;99.90
26053;DHT22;13826;51.186;4.450;2023-05-07T03:19:35;16.60;99.90
26053;DHT22;13826;51.186;4.450;2023-05-07T03:22:01;16.60;99.90
26053;DHT22;13826;51.186;4.450;2023-05-07T03:24:26;16.50;99.90
26053;DHT22;13826;51.186;4.450;2023-05-07T03:26:52;16.50;99.90
26053;DHT22;13826;51.186;4.450;2023-05-07T03:29:17;16.50;99.90
26053;DHT22;13826;51.186;4.450;2023-05-07T03:31:43;16.30;99.90
26053;DHT22;13826;51.186;4.450;2023-05-07T03:34:08;16.40;99.90
26053;DHT22;13826;51.186;4.450;2023-05-07T03:36:34;16.50;99.90
26053;DHT22;13826;51.186;4.450;2023-05-07T03:39:00;16.60;99.90
26053;DHT22;13826;51.186;4.450;2023-05-07T03:41:25;16.70;99.90
26053;DHT22;13826;51.186;4.450;2023-05-07T03:43:51;16.70;99.90
26053;DHT22;13826;51.186;4.450;2023-05-07T03:46:16;16.80;99.90
26053;DHT22;13826;51.186;4.450;2023-05-07T03:48:42;16.70;99.90
26053;DHT22;13826;51.186;4.450;2023-05-07T03:51:07;16.40;99.90
26053;DHT22;13826;51.186;4.450;2023-05-07T03:53:33;16.40;99.90
26053;DHT22;13826;51.186;4.450;2023-05-07T03:55:58;16.30;99.90
26053;DHT22;13826;51.186;4.450;2023-05-07T03:58:24;16.10;99.90
26053;DHT22;13826;51.186;4.450;2023-05-07T04:00:49;15.80;99.90
26053;DHT22;13826;51.186;4.450;2023-05-07T04:03:15;15.70;99.90
26053;DHT22;13826;51.186;4.450;2023-05-07T04:05:40;15.50;99.90
26053;DHT22;13826;51.186;4.450;2023-05-07T04:08:06;15.40;99.90
26053;DHT22;13826;51.186;4.450;2023-05-07T04:10:31;15.20;99.90
26053;DHT22;13826;51.186;4.450;2023-05-07T04:12:57;15.30;99.90
26053;DHT22;13826;51.186;4.450;2023-05-07T04:15:23;15.30;99.90
26053;DHT22;13826;51.186;4.450;2023-05-07T04:17:48;15.20;99.90
26053;DHT22;13826;51.186;4.450;2023-05-07T04:20:14;15.30;99.90
26053;DHT22;13826;51.186;4.450;2023-05-07T04:22:40;15.30;99.90
26053;DHT22;13826;51.186;4.450;2023-05-07T04:25:06;15.30;99.90
26053;DHT22;13826;51.186;4.450;2023-05-07T04:27:31;15.40;99.90
26053;DHT22;13826;51.186;4.450;2023-05-07T04:29:57;15.40;99.90
26053;DHT22;13826;51.186;4.450;2023-05-07T04:32:23;15.40;99.90
26053;DHT22;13826;51.186;4.450;2023-05-07T04:34:50;15.40;99.90
26053;DHT22;13826;51.186;4.450;2023-05-07T04:37:15;15.40;99.90
26053;DHT22;13826;51.186;4.450;2023-05-07T04:39:41;15.50;99.90
26053;DHT22;13826;51.186;4.450;2023-05-07T04:42:07;15.60;99.90
26053;DHT22;13826;51.186;4.450;2023-05-07T04:44:34;15.60;99.90
26053;DHT22;13826;51.186;4.450;2023-05-07T04:47:00;15.60;99.90
26053;DHT22;13826;51.186;4.450;2023-05-07T04:49:25;15.60;99.90
26053;DHT22;13826;51.186;4.450;2023-05-07T04:51:51;15.60;99.90
26053;DHT22;13826;51.186;4.450;2023-05-07T04:54:16;15.60;99.90
26053;DHT22;13826;51.186;4.450;2023-05-07T04:56:42;15.70;99.90
26053;DHT22;13826;51.186;4.450;2023-05-07T04:59:07;16.00;99.90
26053;DHT22;13826;51.186;4.450;2023-05-07T05:01:33;16.10;99.90
26053;DHT22;13826;51.186;4.450;2023-05-07T05:03:58;16.40;99.90
26053;DHT22;13826;51.186;4.450;2023-05-07T05:06:25;16.50;99.90
26053;DHT22;13826;51.186;4.450;2023-05-07T05:08:51;16.60;99.90
26053;DHT22;13826;51.186;4.450;2023-05-07T05:11:16;16.60;99.90
26053;DHT22;13826;51.186;4.450;2023-05-07T05:13:42;16.50;99.90
26053;DHT22;13826;51.186;4.450;2023-05-07T05:16:07;16.40;99.90
26053;DHT22;13826;51.186;4.450;2023-05-07T05:18:33;16.70;99.90
26053;DHT22;13826;51.186;4.450;2023-05-07T05:20:58;16.70;99.90
26053;DHT22;13826;51.186;4.450;2023-05-07T05:23:24;16.70;99.90
26053;DHT22;13826;51.186;4.450;2023-05-07T05:25:50;16.70;99.90
26053;DHT22;13826;51.186;4.450;2023-05-07T05:28:15;16.70;99.90
26053;DHT22;13826;51.186;4.450;2023-05-07T05:30:41;16.70;99.90
26053;DHT22;13826;51.186;4.450;2023-05-07T05:33:06;16.70;99.90
26053;DHT22;13826;51.186;4.450;2023-05-07T05:35:32;16.70;99.90
26053;DHT22;13826;51.186;4.450;2023-05-07T05:37:57;16.80;99.90
26053;DHT22;13826;51.186;4.450;2023-05-07T05:40:23;16.90;99.90
26053;DHT22;13826;51.186;4.450;2023-05-07T05:42:48;17.00;99.90
26053;DHT22;13826;51.186;4.450;2023-05-07T05:45:14;16.90;99.90
26053;DHT22;13826;51.186;4.450;2023-05-07T05:47:39;17.10;99.90
26053;DHT22;13826;51.186;4.450;2023-05-07T05:50:05;16.90;99.90
26053;DHT22;13826;51.186;4.450;2023-05-07T05:52:31;16.90;99.90
26053;DHT22;13826;51.186;4.450;2023-05-07T05:54:57;16.90;99.90
26053;DHT22;13826;51.186;4.450;2023-05-07T05:57:22;17.20;99.90
26053;DHT22;13826;51.186;4.450;2023-05-07T05:59:48;17.50;99.90
26053;DHT22;13826;51.186;4.450;2023-05-07T06:02:13;17.30;99.90
26053;DHT22;13826;51.186;4.450;2023-05-07T06:04:39;17.00;99.90
26053;DHT22;13826;51.186;4.450;2023-05-07T06:07:05;16.90;99.90
26053;DHT22;13826;51.186;4.450;2023-05-07T06:09:30;16.70;99.90
26053;DHT22;13826;51.186;4.450;2023-05-07T06:11:56;16.70;99.90
26053;DHT22;13826;51.186;4.450;2023-05-07T06:14:21;16.60;99.90
26053;DHT22;13826;51.186;4.450;2023-05-07T06:16:47;16.70;99.90
26053;DHT22;13826;51.186;4.450;2023-05-07T06:19:12;16.80;99.90
26053;DHT22;13826;51.186;4.450;2023-05-07T06:21:38;16.90;99.90
26053;DHT22;13826;51.186;4.450;2023-05-07T06:24:04;17.00;99.90
26053;DHT22;13826;51.186;4.450;2023-05-07T06:26:29;17.00;99.90
26053;DHT22;13826;51.186;4.450;2023-05-07T06:28:55;17.00;99.90
26053;DHT22;13826;51.186;4.450;2023-05-07T06:31:21;17.40;99.90
26053;DHT22;13826;51.186;4.450;2023-05-07T06:33:47;17.60;99.90
26053;DHT22;13826;51.186;4.450;2023-05-07T06:36:12;17.80;99.90
26053;DHT22;13826;51.186;4.450;2023-05-07T06:38:38;18.10;99.90
26053;DHT22;13826;51.186;4.450;2023-05-07T06:41:03;18.50;99.90
26053;DHT22;13826;51.186;4.450;2023-05-07T06:43:29;18.90;97.50
26053;DHT22;13826;51.186;4.450;2023-05-07T06:45:54;19.20;92.00
26053;DHT22;13826;51.186;4.450;2023-05-07T06:48:20;19.40;86.20
26053;DHT22;13826;51.186;4.450;2023-05-07T06:50:45;19.60;84.60
26053;DHT22;13826;51.186;4.450;2023-05-07T06:53:11;20.00;73.10
26053;DHT22;13826;51.186;4.450;2023-05-07T06:55:37;20.20;56.80
26053;DHT22;13826;51.186;4.450;2023-05-07T06:58:03;20.30;49.50
26053;DHT22;13826;51.186;4.450;2023-05-07T07:00:29;20.30;42.30
26053;DHT22;13826;51.186;4.450;2023-05-07T07:02:55;20.10;46.00
26053;DHT22;13826;51.186;4.450;2023-05-07T07:05:20;19.90;50.50
26053;DHT22;13826;51.186;4.450;2023-05-07T07:07:46;19.90;55.10
26053;DHT22;13826;51.186;4.450;2023-05-07T07:10:18;19.80;54.30
26053;DHT22;13826;51.186;4.450;2023-05-07T07:12:44;19.60;63.40
26053;DHT22;13826;51.186;4.450;2023-05-07T07:15:10;19.50;67.20
26053;DHT22;13826;51.186;4.450;2023-05-07T07:17:35;19.50;63.00
26053;DHT22;13826;51.186;4.450;2023-05-07T07:20:01;19.50;67.60
26053;DHT22;13826;51.186;4.450;2023-05-07T07:22:28;19.50;77.20
26053;DHT22;13826;51.186;4.450;2023-05-07T07:24:54;19.90;71.90
26053;DHT22;13826;51.186;4.450;2023-05-07T07:27:19;20.10;53.30
26053;DHT22;13826;51.186;4.450;2023-05-07T07:29:45;20.30;42.50
26053;DHT22;13826;51.186;4.450;2023-05-07T07:32:10;20.50;31.00
26053;DHT22;13826;51.186;4.450;2023-05-07T07:34:36;20.60;23.30
26053;DHT22;13826;51.186;4.450;2023-05-07T07:37:01;20.80;15.30
26053;DHT22;13826;51.186;4.450;2023-05-07T07:39:30;21.00;11.40
26053;DHT22;13826;51.186;4.450;2023-05-07T07:41:56;21.10;1.00
26053;DHT22;13826;51.186;4.450;2023-05-07T07:44:22;20.80;1.00
26053;DHT22;13826;51.186;4.450;2023-05-07T07:46:47;21.00;1.00
26053;DHT22;13826;51.186;4.450;2023-05-07T07:49:13;20.80;1.00
26053;DHT22;13826;51.186;4.450;2023-05-07T07:51:38;20.90;1.00
26053;DHT22;13826;51.186;4.450;2023-05-07T07:54:04;21.20;1.00
26053;DHT22;13826;51.186;4.450;2023-05-07T07:56:29;21.10;1.00
26053;DHT22;13826;51.186;4.450;2023-05-07T07:58:55;21.00;1.00
26053;DHT22;13826;51.186;4.450;2023-05-07T08:01:20;20.60;1.00
26053;DHT22;13826;51.186;4.450;2023-05-07T08:03:46;20.80;1.00
26053;DHT22;13826;51.186;4.450;2023-05-07T08:06:11;21.00;1.00
26053;DHT22;13826;51.186;4.450;2023-05-07T08:08:37;21.40;1.00
26053;DHT22;13826;51.186;4.450;2023-05-07T08:11:02;21.20;1.00
26053;DHT22;13826;51.186;4.450;2023-05-07T08:13:28;21.30;1.00
26053;DHT22;13826;51.186;4.450;2023-05-07T08:15:53;21.40;1.00
26053;DHT22;13826;51.186;4.450;2023-05-07T08:18:19;21.70;1.00
26053;DHT22;13826;51.186;4.450;2023-05-07T08:20:45;21.90;1.00
26053;DHT22;13826;51.186;4.450;2023-05-07T08:23:10;21.30;1.00
26053;DHT22;13826;51.186;4.450;2023-05-07T08:25:36;21.20;1.00
26053;DHT22;13826;51.186;4.450;2023-05-07T08:28:02;21.20;1.00
26053;DHT22;13826;51.186;4.450;2023-05-07T08:30:28;21.40;1.00
26053;DHT22;13826;51.186;4.450;2023-05-07T08:32:54;21.60;1.00
26053;DHT22;13826;51.186;4.450;2023-05-07T08:35:19;21.50;1.00
26053;DHT22;13826;51.186;4.450;2023-05-07T08:37:45;21.50;1.00
26053;DHT22;13826;51.186;4.450;2023-05-07T08:40:11;21.70;1.00
26053;DHT22;13826;51.186;4.450;2023-05-07T08:42:36;21.80;1.00
26053;DHT22;13826;51.186;4.450;2023-05-07T08:45:03;22.00;1.00
26053;DHT22;13826;51.186;4.450;2023-05-07T08:47:34;21.90;1.00
26053;DHT22;13826;51.186;4.450;2023-05-07T08:50:01;21.70;1.00
26053;DHT22;13826;51.186;4.450;2023-05-07T08:52:27;21.50;1.00
26053;DHT22;13826;51.186;4.450;2023-05-07T08:54:52;21.40;1.00
26053;DHT22;13826;51.186;4.450;2023-05-07T08:57:18;21.30;1.00
26053;DHT22;13826;51.186;4.450;2023-05-07T08:59:45;21.50;1.00
26053;DHT22;13826;51.186;4.450;2023-05-07T09:02:11;21.70;1.00
26053;DHT22;13826;51.186;4.450;2023-05-07T09:04:36;21.90;1.00
26053;DHT22;13826;51.186;4.450;2023-05-07T09:07:03;21.90;1.00
26053;DHT22;13826;51.186;4.450;2023-05-07T09:09:32;22.10;1.00
26053;DHT22;13826;51.186;4.450;2023-05-07T09:11:57;22.20;1.00
26053;DHT22;13826;51.186;4.450;2023-05-07T09:14:27;22.20;1.00
26053;DHT22;13826;51.186;4.450;2023-05-07T09:16:53;22.00;1.00
26053;DHT22;13826;51.186;4.450;2023-05-07T09:19:25;22.20;1.00
26053;DHT22;13826;51.186;4.450;2023-05-07T09:22:00;22.10;1.00
26053;DHT22;13826;51.186;4.450;2023-05-07T09:24:26;22.30;1.00
26053;DHT22;13826;51.186;4.450;2023-05-07T09:26:53;22.10;1.00
26053;DHT22;13826;51.186;4.450;2023-05-07T09:29:20;21.80;1.00
26053;DHT22;13826;51.186;4.450;2023-05-07T09:31:46;21.90;1.00
26053;DHT22;13826;51.186;4.450;2023-05-07T09:34:11;22.10;1.00
26053;DHT22;13826;51.186;4.450;2023-05-07T09:36:37;22.20;1.00
26053;DHT22;13826;51.186;4.450;2023-05-07T09:39:02;22.30;1.00
26053;DHT22;13826;51.186;4.450;2023-05-07T09:41:29;22.10;1.00
26053;DHT22;13826;51.186;4.450;2023-05-07T09:43:55;22.10;1.00
26053;DHT22;13826;51.186;4.450;2023-05-07T09:46:24;22.00;1.00
26053;DHT22;13826;51.186;4.450;2023-05-07T09:48:50;22.00;1.00
26053;DHT22;13826;51.186;4.450;2023-05-07T09:53:43;22.00;1.00
26053;DHT22;13826;51.186;4.450;2023-05-07T09:56:09;21.90;1.00
26053;DHT22;13826;51.186;4.450;2023-05-07T09:58:36;21.60;1.00
26053;DHT22;13826;51.186;4.450;2023-05-07T10:01:02;21.50;1.00
26053;DHT22;13826;51.186;4.450;2023-05-07T10:03:27;21.50;1.00
26053;DHT22;13826;51.186;4.450;2023-05-07T10:05:55;21.60;1.00
26053;DHT22;13826;51.186;4.450;2023-05-07T10:08:21;21.40;2.20
26053;DHT22;13826;51.186;4.450;2023-05-07T10:10:47;21.00;25.10
26053;DHT22;13826;51.186;4.450;2023-05-07T10:13:12;20.40;39.20
26053;DHT22;13826;51.186;4.450;2023-05-07T10:15:38;20.30;52.50
26053;DHT22;13826;51.186;4.450;2023-05-07T10:18:04;20.60;55.70
26053;DHT22;13826;51.186;4.450;2023-05-07T10:20:30;20.70;43.90
26053;DHT22;13826;51.186;4.450;2023-05-07T10:22:56;20.90;35.70
26053;DHT22;13826;51.186;4.450;2023-05-07T10:25:23;21.00;26.00
26053;DHT22;13826;51.186;4.450;2023-05-07T10:27:50;20.90;27.00
26053;DHT22;13826;51.186;4.450;2023-05-07T10:30:21;20.80;27.40
26053;DHT22;13826;51.186;4.450;2023-05-07T10:32:49;20.70;26.30
26053;DHT22;13826;51.186;4.450;2023-05-07T10:35:17;20.60;40.10
26053;DHT22;13826;51.186;4.450;2023-05-07T10:37:44;20.70;39.20
26053;DHT22;13826;51.186;4.450;2023-05-07T10:40:10;20.90;35.30
26053;DHT22;13826;51.186;4.450;2023-05-07T10:42:36;20.70;37.60
26053;DHT22;13826;51.186;4.450;2023-05-07T10:45:11;20.80;34.60
26053;DHT22;13826;51.186;4.450;2023-05-07T10:48:00;20.90;43.00
26053;DHT22;13826;51.186;4.450;2023-05-07T10:50:23;20.80;49.30
26053;DHT22;13826;51.186;4.450;2023-05-07T10:53:15;21.00;51.20
26053;DHT22;13826;51.186;4.450;2023-05-07T10:55:34;21.10;40.10
26053;DHT22;13826;51.186;4.450;2023-05-07T10:58:22;21.00;33.40
26053;DHT22;13826;51.186;4.450;2023-05-07T11:00:45;20.90;45.10
26053;DHT22;13826;51.186;4.450;2023-05-07T11:03:11;21.00;50.60
26053;DHT22;13826;51.186;4.450;2023-05-07T11:05:38;21.10;46.30
26053;DHT22;13826;51.186;4.450;2023-05-07T11:08:04;21.10;24.70
26053;DHT22;13826;51.186;4.450;2023-05-07T11:13:14;21.30;31.10
26053;DHT22;13826;51.186;4.450;2023-05-07T11:15:41;21.40;23.20
26053;DHT22;13826;51.186;4.450;2023-05-07T11:18:08;21.40;21.40
26053;DHT22;13826;51.186;4.450;2023-05-07T11:20:53;21.40;20.40
26053;DHT22;13826;51.186;4.450;2023-05-07T11:28:29;21.20;12.90
26053;DHT22;13826;51.186;4.450;2023-05-07T11:30:55;21.20;15.90
26053;DHT22;13826;51.186;4.450;2023-05-07T11:33:22;21.30;20.00
26053;DHT22;13826;51.186;4.450;2023-05-07T11:35:47;21.40;12.10
26053;DHT22;13826;51.186;4.450;2023-05-07T11:38:13;21.50;6.30
26053;DHT22;13826;51.186;4.450;2023-05-07T11:43:33;21.40;12.20
26053;DHT22;13826;51.186;4.450;2023-05-07T11:46:10;21.50;8.60
26053;DHT22;13826;51.186;4.450;2023-05-07T11:48:36;21.60;6.20
26053;DHT22;13826;51.186;4.450;2023-05-07T11:51:02;21.50;16.20
26053;DHT22;13826;51.186;4.450;2023-05-07T11:53:34;21.70;16.20
26053;DHT22;13826;51.186;4.450;2023-05-07T11:56:00;21.80;1.90
26053;DHT22;13826;51.186;4.450;2023-05-07T11:58:26;21.60;1.00
26053;DHT22;13826;51.186;4.450;2023-05-07T12:00:52;21.60;3.60
26053;DHT22;13826;51.186;4.450;2023-05-07T12:03:18;21.60;4.60
26053;DHT22;13826;51.186;4.450;2023-05-07T12:05:44;21.60;5.50
26053;DHT22;13826;51.186;4.450;2023-05-07T12:08:13;21.70;4.90
26053;DHT22;13826;51.186;4.450;2023-05-07T12:10:43;21.70;1.00
26053;DHT22;13826;51.186;4.450;2023-05-07T12:13:15;22.00;1.00
26053;DHT22;13826;51.186;4.450;2023-05-07T12:15:41;22.10;1.00
26053;DHT22;13826;51.186;4.450;2023-05-07T12:18:07;21.50;1.00
26053;DHT22;13826;51.186;4.450;2023-05-07T12:20:33;21.70;1.00
26053;DHT22;13826;51.186;4.450;2023-05-07T12:22:59;21.50;1.00
26053;DHT22;13826;51.186;4.450;2023-05-07T12:25:24;21.40;1.00
26053;DHT22;13826;51.186;4.450;2023-05-07T12:27:53;21.00;1.90
26053;DHT22;13826;51.186;4.450;2023-05-07T12:30:19;21.20;4.60
26053;DHT22;13826;51.186;4.450;2023-05-07T12:32:44;21.40;1.00
26053;DHT22;13826;51.186;4.450;2023-05-07T12:35:10;21.70;1.00
26053;DHT22;13826;51.186;4.450;2023-05-07T12:37:36;21.90;1.00
26053;DHT22;13826;51.186;4.450;2023-05-07T12:40:08;21.90;1.00
26053;DHT22;13826;51.186;4.450;2023-05-07T12:42:38;21.80;1.00
26053;DHT22;13826;51.186;4.450;2023-05-07T12:45:10;21.80;1.00
26053;DHT22;13826;51.186;4.450;2023-05-07T12:47:36;21.90;1.00
26053;DHT22;13826;51.186;4.450;2023-05-07T12:50:04;21.90;1.00
26053;DHT22;13826;51.186;4.450;2023-05-07T12:52:30;22.10;1.00
26053;DHT22;13826;51.186;4.450;2023-05-07T12:54:56;22.10;1.00
26053;DHT22;13826;51.186;4.450;2023-05-07T12:57:22;22.30;1.00
26053;DHT22;13826;51.186;4.450;2023-05-07T12:59:47;22.20;1.00
26053;DHT22;13826;51.186;4.450;2023-05-07T13:02:13;22.30;1.00
26053;DHT22;13826;51.186;4.450;2023-05-07T13:04:38;22.40;1.00
26053;DHT22;13826;51.186;4.450;2023-05-07T13:07:04;22.70;1.00
26053;DHT22;13826;51.186;4.450;2023-05-07T13:09:30;22.80;1.00
26053;DHT22;13826;51.186;4.450;2023-05-07T13:11:56;22.90;1.00
26053;DHT22;13826;51.186;4.450;2023-05-07T13:14:21;23.30;1.00
26053;DHT22;13826;51.186;4.450;2023-05-07T13:16:47;23.30;1.00
26053;DHT22;13826;51.186;4.450;2023-05-07T13:19:13;23.30;1.00
26053;DHT22;13826;51.186;4.450;2023-05-07T13:21:38;23.50;99.90
26053;DHT22;13826;51.186;4.450;2023-05-07T13:24:04;23.30;99.90
26053;DHT22;13826;51.186;4.450;2023-05-07T13:26:30;23.30;1.00
26053;DHT22;13826;51.186;4.450;2023-05-07T13:28:56;23.40;99.90
26053;DHT22;13826;51.186;4.450;2023-05-07T13:31:22;23.60;99.90
26053;DHT22;13826;51.186;4.450;2023-05-07T13:33:47;23.90;99.90
26053;DHT22;13826;51.186;4.450;2023-05-07T13:36:13;23.90;99.90
26053;DHT22;13826;51.186;4.450;2023-05-07T13:38:39;24.10;99.90
26053;DHT22;13826;51.186;4.450;2023-05-07T13:41:04;24.00;1.00
26053;DHT22;13826;51.186;4.450;2023-05-07T13:43:30;23.70;69.40
26053;DHT22;13826;51.186;4.450;2023-05-07T13:45:57;22.90;1.00
26053;DHT22;13826;51.186;4.450;2023-05-07T13:48:22;22.80;99.90
26053;DHT22;13826;51.186;4.450;2023-05-07T13:50:48;23.00;99.90
26053;DHT22;13826;51.186;4.450;2023-05-07T13:53:13;23.10;1.00
26053;DHT22;13826;51.186;4.450;2023-05-07T13:55:40;23.00;1.00
26053;DHT22;13826;51.186;4.450;2023-05-07T13:58:06;22.70;1.00
26053;DHT22;13826;51.186;4.450;2023-05-07T14:00:32;22.80;99.90
26053;DHT22;13826;51.186;4.450;2023-05-07T14:02:57;23.10;99.90
26053;DHT22;13826;51.186;4.450;2023-05-07T14:05:23;23.10;99.90
26053;DHT22;13826;51.186;4.450;2023-05-07T14:07:52;23.30;99.90
26053;DHT22;13826;51.186;4.450;2023-05-07T14:10:18;23.10;1.00
26053;DHT22;13826;51.186;4.450;2023-05-07T14:12:44;23.20;99.90
26053;DHT22;13826;51.186;4.450;2023-05-07T14:15:10;23.20;99.90
26053;DHT22;13826;51.186;4.450;2023-05-07T14:17:36;23.50;92.20
26053;DHT22;13826;51.186;4.450;2023-05-07T14:20:02;23.60;1.00
26053;DHT22;13826;51.186;4.450;2023-05-07T14:22:27;23.30;1.00
26053;DHT22;13826;51.186;4.450;2023-05-07T14:24:53;23.30;56.90
26053;DHT22;13826;51.186;4.450;2023-05-07T14:27:18;23.20;1.00
26053;DHT22;13826;51.186;4.450;2023-05-07T14:29:44;23.40;1.00
26053;DHT22;13826;51.186;4.450;2023-05-07T14:32:10;23.30;1.00
26053;DHT22;13826;51.186;4.450;2023-05-07T14:34:36;23.30;99.90
26053;DHT22;13826;51.186;4.450;2023-05-07T14:37:02;23.00;1.00
26053;DHT22;13826;51.186;4.450;2023-05-07T14:39:27;22.20;99.90
26053;DHT22;13826;51.186;4.450;2023-05-07T14:41:53;21.70;1.00
26053;DHT22;13826;51.186;4.450;2023-05-07T14:44:20;21.90;99.90
26053;DHT22;13826;51.186;4.450;2023-05-07T14:46:46;21.70;1.00
26053;DHT22;13826;51.186;4.450;2023-05-07T14:49:11;21.80;1.00
26053;DHT22;13826;51.186;4.450;2023-05-07T14:51:45;22.00;1.00
26053;DHT22;13826;51.186;4.450;2023-05-07T14:54:11;21.80;99.90
26053;DHT22;13826;51.186;4.450;2023-05-07T14:56:36;22.00;1.00
26053;DHT22;13826;51.186;4.450;2023-05-07T14:59:02;22.20;99.90
26053;DHT22;13826;51.186;4.450;2023-05-07T15:01:28;22.10;99.90
26053;DHT22;13826;51.186;4.450;2023-05-07T15:03:54;22.00;99.90
26053;DHT22;13826;51.186;4.450;2023-05-07T15:06:20;22.30;99.90
26053;DHT22;13826;51.186;4.450;2023-05-07T15:08:46;22.40;1.00
26053;DHT22;13826;51.186;4.450;2023-05-07T15:11:11;22.30;99.90
26053;DHT22;13826;51.186;4.450;2023-05-07T15:13:37;22.30;99.90
26053;DHT22;13826;51.186;4.450;2023-05-07T15:16:02;22.40;99.90
26053;DHT22;13826;51.186;4.450;2023-05-07T15:18:28;22.30;99.90
26053;DHT22;13826;51.186;4.450;2023-05-07T15:20:55;22.20;99.90
26053;DHT22;13826;51.186;4.450;2023-05-07T15:23:20;22.30;99.90
26053;DHT22;13826;51.186;4.450;2023-05-07T15:25:46;22.40;99.90
26053;DHT22;13826;51.186;4.450;2023-05-07T15:28:11;22.10;99.90
26053;DHT22;13826;51.186;4.450;2023-05-07T15:30:37;22.30;99.90
26053;DHT22;13826;51.186;4.450;2023-05-07T15:33:02;21.90;99.90
26053;DHT22;13826;51.186;4.450;2023-05-07T15:35:28;21.80;99.90
26053;DHT22;13826;51.186;4.450;2023-05-07T15:37:54;21.50;1.00
26053;DHT22;13826;51.186;4.450;2023-05-07T15:40:20;21.50;1.00